createdAt,value
2023-10-14T00:00:38.807Z,21.10
2023-10-14T00:02:41.488Z,21.10
2023-10-14T00:04:44.195Z,20.90
2023-10-14T00:06:46.213Z,21.10
2023-10-14T00:08:59.528Z,21.00
2023-10-14T00:11:07.748Z,20.90
2023-10-14T00:13:12.507Z,20.90
2023-10-14T00:15:14.354Z,20.80
2023-10-14T00:17:24.187Z,20.80
2023-10-14T00:19:26.665Z,20.80
2023-10-14T00:21:28.647Z,20.70
2023-10-14T00:23:31.859Z,20.60
2023-10-14T00:25:35.326Z,20.60
2023-10-14T00:27:37.126Z,20.40
2023-10-14T00:29:38.953Z,20.10
2023-10-14T00:31:42.060Z,19.90
2023-10-14T00:33:47.178Z,19.50
2023-10-14T00:35:55.420Z,19.20
2023-10-14T00:37:57.581Z,19.40
2023-10-14T00:40:04.668Z,19.40
2023-10-14T00:42:09.717Z,19.30
2023-10-14T00:44:15.003Z,19.20
2023-10-14T00:46:17.837Z,19.30
2023-10-14T00:48:28.686Z,19.30
2023-10-14T00:50:37.298Z,19.10
2023-10-14T00:52:40.984Z,19.50
2023-10-14T00:54:46.811Z,19.90
2023-10-14T00:56:49.237Z,19.80
2023-10-14T00:58:52.455Z,19.50
2023-10-14T01:01:00.453Z,19.60
2023-10-14T01:03:05.036Z,19.90
2023-10-14T01:05:18.938Z,19.70
2023-10-14T01:07:22.978Z,19.50
2023-10-14T01:09:33.139Z,19.50
2023-10-14T01:11:36.450Z,19.70
2023-10-14T01:13:38.248Z,19.40
2023-10-14T01:15:44.688Z,19.20
2023-10-14T01:17:46.681Z,19.00
2023-10-14T01:19:48.802Z,19.00
2023-10-14T01:21:53.270Z,19.10
2023-10-14T01:23:59.422Z,19.10
2023-10-14T01:26:06.795Z,19.10
2023-10-14T01:28:16.403Z,19.20
2023-10-14T01:30:26.474Z,19.10
2023-10-14T01:32:48.995Z,19.40
2023-10-14T01:34:59.650Z,19.60
2023-10-14T01:37:14.144Z,19.60
2023-10-14T01:39:23.254Z,19.70
2023-10-14T01:41:26.951Z,19.80
2023-10-14T01:43:31.526Z,19.90
2023-10-14T01:45:41.248Z,19.90
2023-10-14T01:47:50.200Z,19.70
2023-10-14T01:49:53.147Z,19.60
2023-10-14T01:51:58.390Z,19.50
2023-10-14T01:54:00.410Z,19.60
2023-10-14T01:56:03.710Z,19.50
2023-10-14T01:58:10.378Z,19.50
2023-10-14T02:00:29.836Z,19.50
2023-10-14T02:02:32.276Z,19.30
2023-10-14T02:04:34.413Z,19.20
2023-10-14T02:06:36.680Z,19.50
2023-10-14T02:08:39.660Z,19.30
2023-10-14T02:10:48.437Z,19.40
2023-10-14T02:12:50.669Z,19.40
2023-10-14T02:14:59.284Z,19.30
2023-10-14T02:17:01.875Z,19.30
2023-10-14T02:19:23.388Z,19.30
2023-10-14T02:21:29.136Z,19.40
2023-10-14T02:23:45.141Z,19.40
2023-10-14T02:25:47.122Z,19.50
2023-10-14T02:27:49.093Z,19.60
2023-10-14T02:29:51.087Z,19.70
2023-10-14T02:31:53.050Z,19.70
2023-10-14T02:34:00.734Z,19.70
2023-10-14T02:36:02.824Z,19.80
2023-10-14T02:38:06.099Z,19.70
2023-10-14T02:40:20.096Z,19.70
2023-10-14T02:42:21.858Z,19.50
2023-10-14T02:44:29.783Z,19.40
2023-10-14T02:46:32.085Z,19.60
2023-10-14T02:48:54.040Z,19.40
2023-10-14T02:50:58.186Z,19.40
2023-10-14T02:53:08.289Z,19.50
2023-10-14T02:55:22.183Z,19.50
2023-10-14T02:57:24.086Z,19.40
2023-10-14T02:59:44.711Z,19.50
2023-10-14T03:02:12.110Z,19.40
2023-10-14T03:04:19.714Z,19.60
2023-10-14T03:06:21.697Z,19.60
2023-10-14T03:08:23.694Z,19.70
2023-10-14T03:10:25.461Z,19.60
2023-10-14T03:12:28.383Z,19.60
2023-10-14T03:14:30.334Z,19.50
2023-10-14T03:16:32.272Z,19.40
2023-10-14T03:18:40.237Z,19.60
2023-10-14T03:21:02.058Z,19.70
2023-10-14T03:23:24.753Z,19.50
2023-10-14T03:25:30.368Z,19.60
2023-10-14T03:27:33.972Z,19.70
2023-10-14T03:29:36.688Z,19.60
2023-10-14T03:31:39.600Z,19.60
2023-10-14T03:33:44.840Z,19.70
2023-10-14T03:36:06.542Z,19.80
2023-10-14T03:38:34.524Z,19.90
2023-10-14T03:40:52.790Z,19.80
2023-10-14T03:42:56.397Z,19.90
2023-10-14T03:44:59.524Z,20.00
2023-10-14T03:47:01.838Z,19.90
2023-10-14T03:49:13.480Z,19.80
2023-10-14T03:51:28.627Z,19.70
2023-10-14T03:53:34.862Z,19.70
2023-10-14T03:55:38.918Z,19.70
2023-10-14T03:57:40.698Z,19.60
2023-10-14T03:59:54.393Z,19.90
2023-10-14T04:01:59.338Z,20.00
2023-10-14T04:04:16.325Z,19.80
2023-10-14T04:06:20.735Z,19.70
2023-10-14T04:08:31.856Z,19.70
2023-10-14T04:10:39.252Z,19.70
2023-10-14T04:12:53.944Z,19.80
2023-10-14T04:14:56.325Z,20.20
2023-10-14T04:17:11.996Z,20.50
2023-10-14T04:19:29.671Z,20.50
2023-10-14T04:21:38.909Z,20.50
2023-10-14T04:23:59.429Z,20.50
2023-10-14T04:26:04.689Z,20.50
2023-10-14T04:28:15.729Z,20.40
2023-10-14T04:30:56.856Z,20.30
2023-10-14T04:33:02.427Z,20.30
2023-10-14T04:35:12.815Z,20.60
2023-10-14T04:37:21.527Z,20.40
2023-10-14T04:39:47.526Z,20.40
2023-10-14T04:42:12.049Z,20.30
2023-10-14T04:44:14.048Z,20.60
2023-10-14T04:46:17.717Z,20.50
2023-10-14T04:48:28.391Z,20.50
2023-10-14T04:50:32.631Z,20.40
2023-10-14T04:52:37.172Z,20.40
2023-10-14T04:54:52.557Z,20.30
2023-10-14T04:56:59.243Z,20.30
2023-10-14T04:59:06.338Z,20.50
2023-10-14T05:01:19.237Z,20.30
2023-10-14T05:03:43.244Z,20.30
2023-10-14T05:06:16.359Z,20.20
2023-10-14T05:08:22.772Z,20.20
2023-10-14T05:10:27.952Z,19.90
2023-10-14T05:12:29.757Z,19.80
2023-10-14T05:14:43.591Z,20.00
2023-10-14T05:17:14.541Z,19.90
2023-10-14T05:19:24.828Z,20.00
2023-10-14T05:21:38.075Z,19.90
2023-10-14T05:23:43.329Z,20.00
2023-10-14T05:25:45.383Z,20.10
2023-10-14T05:27:47.814Z,20.10
2023-10-14T05:29:53.681Z,19.30
2023-10-14T05:32:11.576Z,18.50
2023-10-14T05:36:16.989Z,17.70
2023-10-14T05:38:20.679Z,17.60
2023-10-14T05:40:23.086Z,17.50
2023-10-14T05:42:26.041Z,17.20
2023-10-14T05:44:31.323Z,17.10
2023-10-14T05:46:33.205Z,17.00
2023-10-14T05:48:35.263Z,17.20
2023-10-14T05:50:37.421Z,17.10
2023-10-14T05:52:39.804Z,17.10
2023-10-14T05:54:46.720Z,17.10
2023-10-14T05:56:48.858Z,17.10
2023-10-14T05:58:53.375Z,17.20
2023-10-14T06:00:56.986Z,17.20
2023-10-14T06:02:59.559Z,17.00
2023-10-14T06:05:01.586Z,16.90
2023-10-14T06:07:03.698Z,16.70
2023-10-14T06:09:08.594Z,16.50
2023-10-14T06:11:11.348Z,16.50
2023-10-14T06:13:15.504Z,16.30
2023-10-14T06:15:19.349Z,16.00
2023-10-14T06:17:21.553Z,15.50
2023-10-14T06:19:23.575Z,14.70
2023-10-14T06:21:28.506Z,14.40
2023-10-14T06:23:30.450Z,14.10
2023-10-14T06:25:33.346Z,13.90
2023-10-14T06:27:35.176Z,13.70
2023-10-14T06:29:37.458Z,13.50
2023-10-14T06:31:39.422Z,13.30
2023-10-14T06:33:45.034Z,13.20
2023-10-14T06:35:49.069Z,13.20
2023-10-14T06:37:50.880Z,13.10
2023-10-14T06:39:53.332Z,13.10
2023-10-14T06:41:56.626Z,13.10
2023-10-14T06:43:58.508Z,13.10
2023-10-14T06:46:00.573Z,13.10
2023-10-14T06:48:10.702Z,13.10
2023-10-14T06:50:14.213Z,13.10
2023-10-14T06:52:19.858Z,13.10
2023-10-14T06:54:26.620Z,13.10
2023-10-14T06:56:28.786Z,13.10
2023-10-14T06:58:33.450Z,13.10
2023-10-14T07:00:38.683Z,13.10
2023-10-14T07:02:41.155Z,13.20
2023-10-14T07:04:43.142Z,13.10
2023-10-14T07:06:49.145Z,13.10
2023-10-14T07:08:54.820Z,13.00
2023-10-14T07:10:57.312Z,12.90
2023-10-14T07:13:02.114Z,12.90
2023-10-14T07:15:07.014Z,12.80
2023-10-14T07:17:08.948Z,12.80
2023-10-14T07:19:12.572Z,12.80
2023-10-14T07:21:14.658Z,12.70
2023-10-14T07:23:17.872Z,12.70
2023-10-14T07:25:20.798Z,12.80
2023-10-14T07:27:23.041Z,12.80
2023-10-14T07:29:24.962Z,12.80
2023-10-14T07:31:26.785Z,12.80
2023-10-14T07:33:28.871Z,12.80
2023-10-14T07:35:32.546Z,12.80
2023-10-14T07:37:35.133Z,12.70
2023-10-14T07:39:37.462Z,12.70
2023-10-14T07:41:39.302Z,12.70
2023-10-14T07:43:41.272Z,12.70
2023-10-14T07:45:44.798Z,12.70
2023-10-14T07:47:48.569Z,12.80
2023-10-14T07:49:52.060Z,12.80
2023-10-14T07:51:55.574Z,12.80
2023-10-14T07:53:58.063Z,12.90
2023-10-14T07:56:00.094Z,13.10
2023-10-14T07:58:02.046Z,13.10
2023-10-14T08:00:13.112Z,13.20
2023-10-14T08:02:19.880Z,13.10
2023-10-14T08:04:24.892Z,13.20
2023-10-14T08:06:27.591Z,13.10
2023-10-14T08:08:31.973Z,13.10
2023-10-14T08:10:34.409Z,12.90
2023-10-14T08:12:38.020Z,12.90
2023-10-14T08:14:42.448Z,12.80
2023-10-14T08:16:47.078Z,13.00
2023-10-14T08:18:50.038Z,13.10
2023-10-14T08:20:56.264Z,13.20
2023-10-14T08:22:58.984Z,13.30
2023-10-14T08:25:00.872Z,13.30
2023-10-14T08:27:02.736Z,13.30
2023-10-14T08:29:04.861Z,13.40
2023-10-14T08:31:09.386Z,13.60
2023-10-14T08:33:11.421Z,13.60
2023-10-14T08:35:17.697Z,13.40
2023-10-14T08:37:19.629Z,13.20
2023-10-14T08:39:25.657Z,13.30
2023-10-14T08:41:28.329Z,13.70
2023-10-14T08:43:32.284Z,14.10
2023-10-14T08:45:40.348Z,14.20
2023-10-14T08:47:45.002Z,14.30
2023-10-14T08:49:47.386Z,14.30
2023-10-14T08:51:54.769Z,14.30
2023-10-14T08:53:58.971Z,14.00
2023-10-14T08:56:02.043Z,14.00
2023-10-14T08:58:06.758Z,14.10
2023-10-14T09:00:13.710Z,14.40
2023-10-14T09:02:15.902Z,14.90
2023-10-14T09:04:28.192Z,15.10
2023-10-14T09:06:30.290Z,15.00
2023-10-14T09:08:35.532Z,15.70
2023-10-14T09:10:38.202Z,15.70
2023-10-14T09:12:42.544Z,15.40
2023-10-14T09:14:44.402Z,15.30
2023-10-14T09:16:54.955Z,15.20
2023-10-14T09:19:01.670Z,14.90
2023-10-14T09:21:06.707Z,14.90
2023-10-14T09:23:40.969Z,15.10
2023-10-14T09:26:00.045Z,15.60
2023-10-14T09:28:02.513Z,16.50
2023-10-14T09:30:05.300Z,16.90
2023-10-14T09:32:07.618Z,16.80
2023-10-14T09:34:25.094Z,16.80
2023-10-14T09:36:27.720Z,16.40
2023-10-14T09:38:33.327Z,16.70
2023-10-14T09:40:36.605Z,16.70
2023-10-14T09:42:39.270Z,16.30
2023-10-14T09:44:44.481Z,16.10
2023-10-14T09:46:47.942Z,15.90
2023-10-14T09:48:51.985Z,15.80
2023-10-14T09:50:58.314Z,15.20
2023-10-14T09:53:03.097Z,15.40
2023-10-14T09:55:10.633Z,16.20
2023-10-14T09:57:14.014Z,16.20
2023-10-14T09:59:18.443Z,16.60
2023-10-14T10:01:20.885Z,17.10
2023-10-14T10:03:24.781Z,17.20
2023-10-14T10:05:40.357Z,17.80
2023-10-14T10:08:00.589Z,16.90
2023-10-14T10:10:16.438Z,17.30
2023-10-14T10:12:21.835Z,16.80
2023-10-14T10:14:26.237Z,16.90
2023-10-14T10:16:35.972Z,17.30
2023-10-14T10:19:04.397Z,18.00
2023-10-14T10:21:06.181Z,18.30
2023-10-14T10:23:08.734Z,18.20
2023-10-14T10:25:18.055Z,19.00
2023-10-14T10:27:21.568Z,18.70
2023-10-14T10:29:24.091Z,18.70
2023-10-14T10:31:27.991Z,18.80
2023-10-14T10:34:06.295Z,18.50
2023-10-14T10:36:12.676Z,18.90
2023-10-14T10:38:14.699Z,18.90
2023-10-14T10:40:28.800Z,19.60
2023-10-14T10:42:32.589Z,19.40
2023-10-14T10:44:35.642Z,19.20
2023-10-14T10:46:44.007Z,19.40
2023-10-14T10:48:46.046Z,19.10
2023-10-14T10:50:52.465Z,17.80
2023-10-14T10:53:21.069Z,16.70
2023-10-14T10:55:25.391Z,17.30
2023-10-14T10:57:27.413Z,17.60
2023-10-14T10:59:31.036Z,18.30
2023-10-14T11:01:33.972Z,17.20
2023-10-14T11:03:37.823Z,16.70
2023-10-14T11:05:49.854Z,16.60
2023-10-14T11:07:53.411Z,16.30
2023-10-14T11:09:55.605Z,16.50
2023-10-14T11:12:01.834Z,16.50
2023-10-14T11:14:23.919Z,17.30
2023-10-14T11:16:29.175Z,18.90
2023-10-14T11:18:38.806Z,20.30
2023-10-14T11:20:42.617Z,20.40
2023-10-14T11:22:44.901Z,20.10
2023-10-14T11:24:47.726Z,18.80
2023-10-14T11:26:51.899Z,17.70
2023-10-14T11:28:54.423Z,17.20
2023-10-14T11:30:58.641Z,17.30
2023-10-14T11:33:00.828Z,17.40
2023-10-14T11:35:04.498Z,17.40
2023-10-14T11:37:13.142Z,19.00
2023-10-14T11:39:23.010Z,19.40
2023-10-14T11:41:27.317Z,20.10
2023-10-14T11:43:30.710Z,19.70
2023-10-14T11:45:34.250Z,19.80
2023-10-14T11:47:45.312Z,19.60
2023-10-14T11:49:51.152Z,19.80
2023-10-14T11:51:53.740Z,20.00
2023-10-14T11:53:59.912Z,18.80
2023-10-14T11:56:03.973Z,17.90
2023-10-14T11:58:06.207Z,18.00
2023-10-14T12:00:12.216Z,17.20
2023-10-14T12:02:14.024Z,17.50
2023-10-14T12:04:16.757Z,17.70
2023-10-14T12:06:20.263Z,18.70
2023-10-14T12:08:24.129Z,19.30
2023-10-14T12:10:27.437Z,20.20
2023-10-14T12:12:29.447Z,19.50
2023-10-14T12:14:31.613Z,19.50
2023-10-14T12:16:34.434Z,18.50
2023-10-14T12:18:36.760Z,18.30
2023-10-14T12:20:38.507Z,18.10
2023-10-14T12:22:43.036Z,17.80
2023-10-14T12:24:45.291Z,17.80
2023-10-14T12:26:47.115Z,17.10
2023-10-14T12:28:50.787Z,16.50
2023-10-14T12:31:08.164Z,16.20
2023-10-14T12:33:20.103Z,16.40
2023-10-14T12:35:29.471Z,17.40
2023-10-14T12:37:31.985Z,18.20
2023-10-14T12:39:44.136Z,18.90
2023-10-14T12:41:48.681Z,19.20
2023-10-14T12:43:53.450Z,19.40
2023-10-14T12:46:10.737Z,18.10
2023-10-14T12:48:12.691Z,17.30
2023-10-14T12:50:16.163Z,17.40
2023-10-14T12:52:21.186Z,17.90
2023-10-14T12:54:23.141Z,18.00
2023-10-14T12:56:28.057Z,18.10
2023-10-14T12:58:30.181Z,18.60
2023-10-14T13:00:32.349Z,19.00
2023-10-14T13:02:35.720Z,18.90
2023-10-14T13:04:44.162Z,18.50
2023-10-14T13:06:46.268Z,18.00
2023-10-14T13:08:50.434Z,18.00
2023-10-14T13:10:54.095Z,17.80
2023-10-14T13:12:57.520Z,17.70
2023-10-14T13:15:00.526Z,17.50
2023-10-14T13:17:03.032Z,17.40
2023-10-14T13:19:05.420Z,17.10
2023-10-14T13:21:09.071Z,17.00
2023-10-14T13:23:12.863Z,17.40
2023-10-14T13:25:18.885Z,17.30
2023-10-14T13:27:21.245Z,17.00
2023-10-14T13:29:27.310Z,16.60
2023-10-14T13:31:30.072Z,16.30
2023-10-14T13:33:32.317Z,16.10
2023-10-14T13:35:34.609Z,15.80
2023-10-14T13:37:36.448Z,15.80
2023-10-14T13:39:38.397Z,15.70
2023-10-14T13:41:40.322Z,15.60
2023-10-14T13:43:46.341Z,15.50
2023-10-14T13:45:48.217Z,15.50
2023-10-14T13:47:52.306Z,15.80
2023-10-14T13:49:57.635Z,15.80
2023-10-14T13:52:00.144Z,16.00
2023-10-14T13:54:02.213Z,16.10
2023-10-14T13:56:06.225Z,16.20
2023-10-14T13:58:10.980Z,16.30
2023-10-14T14:00:19.994Z,16.10
2023-10-14T14:02:22.055Z,15.90
2023-10-14T14:04:23.978Z,15.80
2023-10-14T14:06:30.157Z,15.70
2023-10-14T14:08:32.093Z,15.90
2023-10-14T14:10:34.896Z,15.90
2023-10-14T14:12:38.094Z,16.10
2023-10-14T14:14:42.483Z,16.20
2023-10-14T14:16:44.357Z,16.10
2023-10-14T14:18:50.387Z,15.90
2023-10-14T14:20:52.892Z,15.80
2023-10-14T14:22:56.737Z,15.70
2023-10-14T14:25:00.634Z,15.50
2023-10-14T14:27:03.806Z,15.30
2023-10-14T14:29:05.785Z,15.10
2023-10-14T14:31:07.610Z,15.00
2023-10-14T14:33:09.515Z,15.10
2023-10-14T14:35:11.715Z,15.20
2023-10-14T14:37:14.135Z,15.30
2023-10-14T14:39:17.115Z,15.50
2023-10-14T14:41:19.809Z,15.60
2023-10-14T14:43:21.533Z,15.60
2023-10-14T14:45:25.444Z,15.70
2023-10-14T14:47:27.393Z,15.60
2023-10-14T14:49:29.424Z,15.50
2023-10-14T14:51:31.306Z,15.40
2023-10-14T14:53:33.263Z,15.20
2023-10-14T14:55:44.457Z,15.10
2023-10-14T14:57:55.011Z,15.00
2023-10-14T14:59:57.707Z,14.90
2023-10-14T15:01:59.611Z,14.80
2023-10-14T15:04:01.732Z,14.70
2023-10-14T15:06:05.077Z,14.70
2023-10-14T15:08:07.418Z,14.60
2023-10-14T15:10:11.336Z,14.50
2023-10-14T15:12:13.291Z,14.40
2023-10-14T15:14:17.016Z,14.20
2023-10-14T15:16:32.669Z,14.10
2023-10-14T15:18:41.539Z,14.00
2023-10-14T15:20:45.785Z,13.90
2023-10-14T15:22:52.625Z,14.00
2023-10-14T15:24:55.027Z,14.00
2023-10-14T15:26:56.803Z,14.00
2023-10-14T15:29:06.494Z,14.10
2023-10-14T15:31:09.400Z,14.00
2023-10-14T15:33:12.511Z,13.90
2023-10-14T15:35:17.277Z,13.90
2023-10-14T15:37:19.453Z,13.80
2023-10-14T15:39:32.327Z,13.70
2023-10-14T15:41:34.903Z,13.60
2023-10-14T15:43:42.992Z,13.50
2023-10-14T15:45:45.539Z,13.40
2023-10-14T15:47:48.551Z,13.40
2023-10-14T15:49:52.226Z,13.30
2023-10-14T15:51:54.592Z,13.20
2023-10-14T15:54:01.983Z,13.20
2023-10-14T15:56:04.571Z,13.30
2023-10-14T15:58:07.134Z,13.20
2023-10-14T16:00:32.495Z,13.10
2023-10-14T16:02:37.230Z,13.00
2023-10-14T16:04:39.066Z,12.90
2023-10-14T16:06:41.028Z,12.90
2023-10-14T16:08:43.787Z,12.90
2023-10-14T16:10:53.586Z,12.80
2023-10-14T16:12:56.183Z,12.70
2023-10-14T16:14:58.179Z,12.60
2023-10-14T16:17:00.092Z,12.60
2023-10-14T16:19:02.641Z,12.60
2023-10-14T16:21:04.595Z,12.60
2023-10-14T16:23:08.076Z,12.50
2023-10-14T16:25:10.415Z,12.50
2023-10-14T16:27:12.210Z,12.30
2023-10-14T16:29:14.061Z,12.20
2023-10-14T16:31:18.598Z,12.10
2023-10-14T16:33:22.084Z,12.10
2023-10-14T16:35:27.871Z,12.10
2023-10-14T16:37:29.696Z,12.00
2023-10-14T16:39:31.498Z,11.90
2023-10-14T16:41:33.351Z,11.90
2023-10-14T16:43:35.111Z,11.90
2023-10-14T16:45:37.510Z,11.80
2023-10-14T16:47:42.060Z,11.80
2023-10-14T16:49:45.670Z,11.90
2023-10-14T16:51:49.404Z,11.90
2023-10-14T16:53:53.019Z,11.90
2023-10-14T16:55:55.986Z,12.00
2023-10-14T16:57:57.922Z,12.00
2023-10-14T17:00:00.072Z,12.00
2023-10-14T17:02:02.700Z,12.00
2023-10-14T17:04:05.924Z,11.90
2023-10-14T17:06:07.782Z,11.80
2023-10-14T17:08:10.789Z,11.80
2023-10-14T17:10:15.608Z,12.00
2023-10-14T17:12:20.969Z,12.00
2023-10-14T17:14:22.876Z,11.90
2023-10-14T17:16:24.721Z,11.90
2023-10-14T17:18:27.226Z,11.90
2023-10-14T17:20:31.468Z,11.90
2023-10-14T17:22:35.887Z,12.00
2023-10-14T17:24:37.762Z,12.00
2023-10-14T17:26:39.616Z,12.10
2023-10-14T17:28:41.473Z,12.20
2023-10-14T17:30:43.519Z,12.20
2023-10-14T17:32:45.374Z,12.20
2023-10-14T17:34:47.241Z,12.30
2023-10-14T17:36:49.439Z,12.30
2023-10-14T17:38:51.255Z,12.30
2023-10-14T17:40:54.106Z,12.30
2023-10-14T17:43:12.868Z,12.30
2023-10-14T17:45:19.612Z,12.30
2023-10-14T17:47:23.776Z,12.20
2023-10-14T17:49:25.828Z,12.30
2023-10-14T17:51:31.600Z,12.20
2023-10-14T17:53:37.965Z,12.20
2023-10-14T17:55:47.534Z,12.20
2023-10-14T17:57:52.348Z,12.20
2023-10-14T17:59:58.202Z,12.10
2023-10-14T18:02:03.525Z,12.10
2023-10-14T18:04:15.544Z,12.10
2023-10-14T18:06:19.004Z,12.20
2023-10-14T18:08:21.523Z,12.10
2023-10-14T18:10:27.429Z,12.00
2023-10-14T18:12:39.272Z,12.00
2023-10-14T18:14:43.715Z,12.00
2023-10-14T18:16:56.581Z,11.90
2023-10-14T18:19:05.878Z,11.90
2023-10-14T18:21:20.982Z,11.80
2023-10-14T18:23:23.367Z,11.60
2023-10-14T18:25:32.225Z,11.50
2023-10-14T18:27:44.136Z,11.40
2023-10-14T18:29:49.018Z,11.30
2023-10-14T18:31:55.377Z,11.20
2023-10-14T18:34:00.951Z,11.10
2023-10-14T18:36:14.564Z,11.10
2023-10-14T18:38:18.995Z,11.20
2023-10-14T18:40:31.176Z,11.00
2023-10-14T18:42:35.508Z,10.80
2023-10-14T18:44:43.461Z,10.50
2023-10-14T18:46:47.517Z,10.30
2023-10-14T18:48:52.484Z,10.10
2023-10-14T18:50:57.746Z,9.90
2023-10-14T18:53:02.174Z,9.80
2023-10-14T18:55:04.424Z,9.60
2023-10-14T18:57:09.607Z,9.50
2023-10-14T18:59:16.257Z,9.50
2023-10-14T19:01:20.831Z,9.50
2023-10-14T19:03:25.879Z,9.50
2023-10-14T19:05:34.122Z,9.50
2023-10-14T19:07:44.881Z,9.50
2023-10-14T19:09:48.173Z,9.40
2023-10-14T19:11:50.471Z,9.30
2023-10-14T19:13:53.546Z,9.20
2023-10-14T19:15:56.270Z,9.10
2023-10-14T19:18:00.659Z,9.10
2023-10-14T19:20:14.198Z,9.10
2023-10-14T19:22:17.058Z,9.10
2023-10-14T19:24:19.777Z,9.10
2023-10-14T19:26:23.334Z,9.10
2023-10-14T19:28:29.756Z,9.10
2023-10-14T19:30:33.637Z,9.00
2023-10-14T19:32:39.621Z,9.00
2023-10-14T19:34:43.112Z,8.90
2023-10-14T19:36:45.073Z,8.80
2023-10-14T19:39:08.923Z,8.80
2023-10-14T19:41:23.620Z,8.80
2023-10-14T19:43:28.575Z,8.80
2023-10-14T19:45:31.446Z,8.90
2023-10-14T19:47:35.479Z,8.90
2023-10-14T19:49:51.020Z,8.90
2023-10-14T19:51:54.079Z,8.90
2023-10-14T19:53:56.340Z,8.90
2023-10-14T19:56:01.400Z,8.90
2023-10-14T19:58:03.661Z,8.80
2023-10-14T20:00:15.712Z,8.80
2023-10-14T20:02:21.923Z,8.80
2023-10-14T20:04:26.481Z,8.90
2023-10-14T20:06:29.364Z,8.90
2023-10-14T20:08:34.794Z,8.90
2023-10-14T20:10:42.105Z,9.00
2023-10-14T20:12:44.684Z,9.00
2023-10-14T20:14:46.782Z,8.90
2023-10-14T20:16:51.426Z,9.00
2023-10-14T20:18:53.293Z,9.00
2023-10-14T20:20:56.728Z,9.00
2023-10-14T20:22:59.474Z,9.00
2023-10-14T20:25:07.047Z,9.00
2023-10-14T20:27:09.002Z,9.00
2023-10-14T20:29:10.990Z,9.00
2023-10-14T20:31:14.741Z,9.10
2023-10-14T20:33:20.369Z,9.10
2023-10-14T20:35:35.983Z,9.10
2023-10-14T20:37:40.718Z,9.10
2023-10-14T20:39:42.880Z,9.20
2023-10-14T20:41:48.290Z,9.30
2023-10-14T20:43:56.471Z,9.20
2023-10-14T20:46:10.715Z,9.20
2023-10-14T20:48:26.413Z,9.20
2023-10-14T20:50:30.207Z,9.10
2023-10-14T20:52:32.885Z,9.20
2023-10-14T20:54:37.868Z,9.20
2023-10-14T20:56:42.084Z,9.10
2023-10-14T20:58:47.320Z,9.10
2023-10-14T21:00:50.743Z,9.10
2023-10-14T21:02:58.805Z,9.20
2023-10-14T21:05:04.625Z,9.20
2023-10-14T21:07:09.630Z,9.20
2023-10-14T21:09:11.789Z,9.30
2023-10-14T21:11:13.938Z,9.30
2023-10-14T21:13:22.026Z,9.20
2023-10-14T21:15:25.871Z,9.20
2023-10-14T21:17:27.826Z,9.20
2023-10-14T21:19:30.263Z,9.20
2023-10-14T21:21:33.732Z,9.20
2023-10-14T21:23:36.172Z,9.10
2023-10-14T21:25:42.749Z,9.00
2023-10-14T21:27:47.724Z,9.00
2023-10-14T21:29:52.038Z,9.00
2023-10-14T21:31:57.308Z,9.00
2023-10-14T21:33:59.468Z,9.00
2023-10-14T21:36:01.586Z,9.00
2023-10-14T21:38:07.324Z,9.00
2023-10-14T21:40:19.329Z,9.00
2023-10-14T21:42:22.639Z,9.00
2023-10-14T21:44:28.740Z,8.90
2023-10-14T21:46:31.128Z,8.80
2023-10-14T21:48:33.868Z,8.80
2023-10-14T21:50:37.694Z,8.80
2023-10-14T21:52:41.849Z,8.70
2023-10-14T21:54:49.329Z,8.70
2023-10-14T21:56:54.397Z,8.70
2023-10-14T21:59:03.445Z,8.60
2023-10-14T22:01:24.844Z,8.50
2023-10-14T22:03:26.990Z,8.50
2023-10-14T22:05:30.803Z,8.50
2023-10-14T22:07:33.402Z,8.50
2023-10-14T22:09:36.533Z,8.50
2023-10-14T22:11:39.140Z,8.40
2023-10-14T22:13:41.191Z,8.30
2023-10-14T22:15:46.445Z,8.30
2023-10-14T22:17:50.497Z,8.30
2023-10-14T22:19:55.803Z,8.20
2023-10-14T22:21:58.904Z,8.10
2023-10-14T22:24:07.646Z,8.10
2023-10-14T22:26:10.525Z,8.10
2023-10-14T22:28:14.791Z,8.20
2023-10-14T22:30:18.367Z,8.20
2023-10-14T22:32:20.167Z,8.10
2023-10-14T22:34:26.741Z,8.10
2023-10-14T22:36:28.807Z,8.20
2023-10-14T22:38:34.018Z,8.20
2023-10-14T22:40:36.023Z,8.10
2023-10-14T22:42:38.843Z,8.10
2023-10-14T22:44:40.673Z,8.10
2023-10-14T22:46:45.124Z,8.00
2023-10-14T22:48:47.339Z,7.90
2023-10-14T22:50:49.210Z,7.80
2023-10-14T22:52:57.088Z,7.90
2023-10-14T22:54:59.357Z,7.80
2023-10-14T22:57:01.206Z,7.70
2023-10-14T22:59:12.424Z,7.60
2023-10-14T23:01:16.751Z,7.70
2023-10-14T23:03:19.050Z,7.70
2023-10-14T23:05:27.693Z,7.70
2023-10-14T23:07:31.278Z,7.70
2023-10-14T23:09:33.185Z,7.70
2023-10-14T23:11:37.604Z,7.70
2023-10-14T23:13:40.533Z,7.70
2023-10-14T23:15:42.324Z,7.70
2023-10-14T23:17:45.996Z,7.70
2023-10-14T23:19:48.116Z,7.60
2023-10-14T23:21:50.263Z,7.60
2023-10-14T23:23:52.397Z,7.70
2023-10-14T23:25:54.246Z,7.80
2023-10-14T23:27:57.828Z,7.80
2023-10-14T23:29:59.747Z,7.80
2023-10-14T23:32:01.557Z,7.80
2023-10-14T23:34:03.509Z,7.70
2023-10-14T23:36:07.409Z,7.70
2023-10-14T23:38:09.354Z,7.80
2023-10-14T23:40:11.650Z,7.90
2023-10-14T23:42:15.233Z,7.90
2023-10-14T23:44:16.979Z,7.80
2023-10-14T23:46:18.886Z,7.70
2023-10-14T23:48:20.789Z,7.70
2023-10-14T23:50:27.240Z,7.60
2023-10-14T23:52:29.551Z,7.60
2023-10-14T23:54:31.405Z,7.60
2023-10-14T23:56:33.346Z,7.60
2023-10-14T23:58:35.222Z,7.50
